This is the latest recevied weather packets stored in our database for station/object SP9MLI-1. If no packets are shown the sender has not sent any weather packets the latest 10 day(s).
| Time | Temp. | Humidity | Pressure | Rain* | Wind** | Luminosity | Snow |
|---|---|---|---|---|---|---|---|
| 1777810096 | 28.89° C | 32% | 1015.7 hPa | 0 mm | - | - | - |
| 1777809195 | 28.89° C | 33% | 1015.7 hPa | 0 mm | - | - | - |
| 1777808295 | 28.89° C | 32% | 1015.7 hPa | 0 mm | - | - | - |
| 1777807396 | 28.89° C | 33% | 1015.7 hPa | 0 mm | - | - | - |
| 1777806499 | 28.33° C | 32% | 1015.7 hPa | 0 mm | - | - | - |
| 1777805595 | 27.78° C | 34% | 1016 hPa | 0 mm | - | - | - |
| 1777804695 | 27.22° C | 34% | 1016 hPa | 0 mm | - | - | - |
| 1777803796 | 27.22° C | 33% | 1016 hPa | 0 mm | - | - | - |
| 1777802896 | 27.22° C | 33% | 1016 hPa | 0 mm | - | - | - |
| 1777801995 | 27.22° C | 33% | 1016.4 hPa | 0 mm | - | - | - |
| 1777801095 | 27.22° C | 37% | 1016.4 hPa | 0 mm | - | - | - |
| 1777800195 | 27.22° C | 35% | 1016.7 hPa | 0 mm | - | - | - |
| 1777753395 | 8.89° C | 78% | 1016.4 hPa | 0 mm | - | - | - |
| 1777752495 | 9.44° C | 78% | 1016.7 hPa | 0 mm | - | - | - |
| 1777751595 | 10° C | 77% | 1017 hPa | 0 mm | - | - | - |
| 1777750695 | 10° C | 75% | 1017 hPa | 0 mm | - | - | - |
| 1777749866 | 11.11° C | 74% | 1017.4 hPa | 0 mm | - | - | - |
| 1777749796 | 11.11° C | 74% | 1017.4 hPa | 0 mm | - | - | - |
| 1777748895 | 12.22° C | 71% | 1017.7 hPa | 0 mm | - | - | - |
| 1777747995 | 12.78° C | 69% | 1017.7 hPa | 0 mm | - | - | - |
| 1777747095 | 13.89° C | 66% | 1018.1 hPa | 0 mm | - | - | - |
| 1777746195 | 15° C | 63% | 1018.4 hPa | 0 mm | - | - | - |
| 1777745294 | 16.11° C | 59% | 1018.7 hPa | 0 mm | - | - | - |
| 1777744395 | 17.22° C | 54% | 1018.4 hPa | 0 mm | - | - | - |
| 1777743494 | 17.78° C | 51% | 1018.7 hPa | 0 mm | - | - | - |
* Rain latest hour (hover to see other rain measurements)
** Current wind speed in m/s (hover to see current wind gust speed)